sensor_id;sensor_type;location;lat;lon;timestamp;pressure;altitude;pressure_sealevel;temperature;humidity
35435;BME280;21556;55.782;37.528;2023-03-03T00:00:40;98345.34;;;1.78;100.00
35435;BME280;21556;55.782;37.528;2023-03-03T00:03:08;98336.59;;;1.73;100.00
35435;BME280;21556;55.782;37.528;2023-03-03T00:05:35;98332.34;;;1.75;100.00
35435;BME280;21556;55.782;37.528;2023-03-03T00:08:02;98326.53;;;1.82;100.00
35435;BME280;21556;55.782;37.528;2023-03-03T00:10:29;98330.09;;;1.85;100.00
35435;BME280;21556;55.782;37.528;2023-03-03T00:12:55;98328.63;;;1.95;100.00
35435;BME280;21556;55.782;37.528;2023-03-03T00:15:23;98326.56;;;1.83;100.00
35435;BME280;21556;55.782;37.528;2023-03-03T00:17:50;98318.72;;;1.80;100.00
35435;BME280;21556;55.782;37.528;2023-03-03T00:20:37;98318.53;;;2.04;100.00
35435;BME280;21556;55.782;37.528;2023-03-03T00:23:16;98329.19;;;1.85;100.00
35435;BME280;21556;55.782;37.528;2023-03-03T00:25:44;98320.19;;;2.02;100.00
35435;BME280;21556;55.782;37.528;2023-03-03T00:30:46;98303.81;;;1.72;100.00
35435;BME280;21556;55.782;37.528;2023-03-03T00:38:49;98298.34;;;1.91;100.00
35435;BME280;21556;55.782;37.528;2023-03-03T00:41:26;98304.59;;;1.99;100.00
35435;BME280;21556;55.782;37.528;2023-03-03T00:43:52;98293.50;;;2.03;100.00
35435;BME280;21556;55.782;37.528;2023-03-03T00:46:20;98289.38;;;2.10;100.00
35435;BME280;21556;55.782;37.528;2023-03-03T00:48:47;98286.63;;;2.04;100.00
35435;BME280;21556;55.782;37.528;2023-03-03T00:53:49;98271.41;;;2.14;100.00
35435;BME280;21556;55.782;37.528;2023-03-03T00:56:15;98273.03;;;1.81;100.00
35435;BME280;21556;55.782;37.528;2023-03-03T00:58:41;98271.69;;;1.93;100.00
35435;BME280;21556;55.782;37.528;2023-03-03T01:01:09;98267.19;;;1.86;100.00
35435;BME280;21556;55.782;37.528;2023-03-03T01:03:41;98265.13;;;2.06;100.00
35435;BME280;21556;55.782;37.528;2023-03-03T01:06:08;98263.97;;;1.95;100.00
35435;BME280;21556;55.782;37.528;2023-03-03T01:08:34;98262.78;;;1.84;100.00
35435;BME280;21556;55.782;37.528;2023-03-03T01:11:06;98255.88;;;1.83;100.00
35435;BME280;21556;55.782;37.528;2023-03-03T01:13:34;98260.28;;;1.87;100.00
35435;BME280;21556;55.782;37.528;2023-03-03T01:16:01;98259.75;;;1.99;100.00
35435;BME280;21556;55.782;37.528;2023-03-03T01:18:28;98256.25;;;1.66;100.00
35435;BME280;21556;55.782;37.528;2023-03-03T01:20:54;98257.78;;;1.90;100.00
35435;BME280;21556;55.782;37.528;2023-03-03T01:23:21;98264.81;;;1.96;100.00
35435;BME280;21556;55.782;37.528;2023-03-03T01:25:47;98258.25;;;1.75;100.00
35435;BME280;21556;55.782;37.528;2023-03-03T01:28:12;98260.88;;;2.08;100.00
35435;BME280;21556;55.782;37.528;2023-03-03T01:30:38;98251.97;;;1.99;100.00
35435;BME280;21556;55.782;37.528;2023-03-03T01:33:05;98256.47;;;2.04;100.00
35435;BME280;21556;55.782;37.528;2023-03-03T01:35:30;98255.66;;;2.07;100.00
35435;BME280;21556;55.782;37.528;2023-03-03T01:37:57;98256.63;;;1.79;100.00
35435;BME280;21556;55.782;37.528;2023-03-03T01:40:26;98252.97;;;1.42;100.00
35435;BME280;21556;55.782;37.528;2023-03-03T01:42:53;98260.25;;;1.85;100.00
35435;BME280;21556;55.782;37.528;2023-03-03T01:45:26;98251.44;;;1.79;100.00
35435;BME280;21556;55.782;37.528;2023-03-03T01:48:09;98251.78;;;1.91;100.00
35435;BME280;21556;55.782;37.528;2023-03-03T01:50:53;98248.88;;;1.80;100.00
35435;BME280;21556;55.782;37.528;2023-03-03T01:53:45;98246.38;;;1.82;100.00
35435;BME280;21556;55.782;37.528;2023-03-03T01:56:14;98247.25;;;1.82;100.00
35435;BME280;21556;55.782;37.528;2023-03-03T01:59:01;98245.03;;;1.96;100.00
35435;BME280;21556;55.782;37.528;2023-03-03T02:01:30;98233.34;;;1.79;100.00
35435;BME280;21556;55.782;37.528;2023-03-03T02:03:58;98240.22;;;2.10;100.00
35435;BME280;21556;55.782;37.528;2023-03-03T02:06:32;98237.88;;;2.19;100.00
35435;BME280;21556;55.782;37.528;2023-03-03T02:09:04;98233.22;;;2.06;100.00
35435;BME280;21556;55.782;37.528;2023-03-03T02:11:35;98223.13;;;2.16;100.00
35435;BME280;21556;55.782;37.528;2023-03-03T02:14:02;98228.44;;;2.21;100.00
35435;BME280;21556;55.782;37.528;2023-03-03T02:16:28;98215.06;;;1.73;100.00
35435;BME280;21556;55.782;37.528;2023-03-03T02:18:54;98208.47;;;2.15;100.00
35435;BME280;21556;55.782;37.528;2023-03-03T02:21:22;98207.41;;;2.07;100.00
35435;BME280;21556;55.782;37.528;2023-03-03T02:24:09;98205.94;;;1.85;100.00
35435;BME280;21556;55.782;37.528;2023-03-03T02:26:40;98203.88;;;2.05;100.00
35435;BME280;21556;55.782;37.528;2023-03-03T02:29:09;98197.31;;;2.18;100.00
35435;BME280;21556;55.782;37.528;2023-03-03T02:31:37;98194.09;;;2.27;100.00
35435;BME280;21556;55.782;37.528;2023-03-03T02:34:04;98191.38;;;1.89;100.00
35435;BME280;21556;55.782;37.528;2023-03-03T02:36:33;98181.94;;;2.24;100.00
35435;BME280;21556;55.782;37.528;2023-03-03T02:39:19;98184.25;;;2.13;100.00
35435;BME280;21556;55.782;37.528;2023-03-03T02:44:39;98190.19;;;1.78;100.00
35435;BME280;21556;55.782;37.528;2023-03-03T02:47:05;98190.38;;;2.17;100.00
35435;BME280;21556;55.782;37.528;2023-03-03T02:49:33;98188.06;;;1.93;100.00
35435;BME280;21556;55.782;37.528;2023-03-03T02:51:59;98181.09;;;1.92;100.00
35435;BME280;21556;55.782;37.528;2023-03-03T02:54:27;98180.28;;;1.61;100.00
35435;BME280;21556;55.782;37.528;2023-03-03T02:56:56;98183.00;;;1.66;100.00
35435;BME280;21556;55.782;37.528;2023-03-03T02:59:22;98173.63;;;1.69;100.00
35435;BME280;21556;55.782;37.528;2023-03-03T03:01:49;98173.94;;;2.15;100.00
35435;BME280;21556;55.782;37.528;2023-03-03T03:04:23;98167.00;;;2.14;100.00
35435;BME280;21556;55.782;37.528;2023-03-03T03:06:51;98168.69;;;2.12;100.00
35435;BME280;21556;55.782;37.528;2023-03-03T03:09:19;98159.31;;;2.15;100.00
35435;BME280;21556;55.782;37.528;2023-03-03T03:11:47;98170.94;;;1.98;100.00
35435;BME280;21556;55.782;37.528;2023-03-03T03:14:16;98169.84;;;1.90;100.00
35435;BME280;21556;55.782;37.528;2023-03-03T03:16:43;98164.03;;;1.99;100.00
35435;BME280;21556;55.782;37.528;2023-03-03T03:19:09;98168.53;;;1.73;100.00
35435;BME280;21556;55.782;37.528;2023-03-03T03:21:37;98170.09;;;1.36;100.00
35435;BME280;21556;55.782;37.528;2023-03-03T03:24:04;98180.50;;;1.69;100.00
35435;BME280;21556;55.782;37.528;2023-03-03T03:26:32;98169.84;;;1.57;100.00
35435;BME280;21556;55.782;37.528;2023-03-03T03:28:58;98165.53;;;1.57;100.00
35435;BME280;21556;55.782;37.528;2023-03-03T03:31:24;98171.88;;;1.68;100.00
35435;BME280;21556;55.782;37.528;2023-03-03T03:33:50;98160.13;;;1.81;100.00
35435;BME280;21556;55.782;37.528;2023-03-03T03:36:20;98165.84;;;2.01;100.00
35435;BME280;21556;55.782;37.528;2023-03-03T03:38:46;98163.63;;;1.82;100.00
35435;BME280;21556;55.782;37.528;2023-03-03T03:41:12;98164.41;;;1.79;100.00
35435;BME280;21556;55.782;37.528;2023-03-03T03:43:38;98159.16;;;1.78;100.00
35435;BME280;21556;55.782;37.528;2023-03-03T03:46:05;98157.72;;;1.87;100.00
35435;BME280;21556;55.782;37.528;2023-03-03T03:48:31;98189.31;;;1.77;100.00
35435;BME280;21556;55.782;37.528;2023-03-03T03:50:58;98218.41;;;1.68;100.00
35435;BME280;21556;55.782;37.528;2023-03-03T03:53:25;98213.06;;;1.94;100.00
35435;BME280;21556;55.782;37.528;2023-03-03T03:55:51;98212.09;;;1.89;100.00
35435;BME280;21556;55.782;37.528;2023-03-03T03:58:18;98193.63;;;2.08;100.00
35435;BME280;21556;55.782;37.528;2023-03-03T04:00:52;98187.47;;;1.72;100.00
35435;BME280;21556;55.782;37.528;2023-03-03T04:03:18;98163.84;;;1.59;100.00
35435;BME280;21556;55.782;37.528;2023-03-03T04:05:47;98167.00;;;1.81;100.00
35435;BME280;21556;55.782;37.528;2023-03-03T04:08:15;98146.41;;;1.84;100.00
35435;BME280;21556;55.782;37.528;2023-03-03T04:10:42;98146.25;;;1.78;100.00
35435;BME280;21556;55.782;37.528;2023-03-03T04:13:08;98143.03;;;1.86;100.00
35435;BME280;21556;55.782;37.528;2023-03-03T04:15:35;98138.91;;;1.60;100.00
35435;BME280;21556;55.782;37.528;2023-03-03T04:18:02;98145.09;;;1.66;100.00
35435;BME280;21556;55.782;37.528;2023-03-03T04:20:29;98145.44;;;1.79;100.00
35435;BME280;21556;55.782;37.528;2023-03-03T04:22:57;98147.91;;;1.42;100.00
35435;BME280;21556;55.782;37.528;2023-03-03T04:25:24;98150.59;;;1.79;100.00
35435;BME280;21556;55.782;37.528;2023-03-03T04:27:52;98145.53;;;1.52;100.00
35435;BME280;21556;55.782;37.528;2023-03-03T04:30:21;98134.13;;;1.75;100.00
35435;BME280;21556;55.782;37.528;2023-03-03T04:32:52;98130.00;;;1.82;100.00
35435;BME280;21556;55.782;37.528;2023-03-03T04:35:21;98136.13;;;1.85;100.00
35435;BME280;21556;55.782;37.528;2023-03-03T04:37:47;98133.19;;;1.72;100.00
35435;BME280;21556;55.782;37.528;2023-03-03T04:40:14;98134.63;;;1.62;100.00
35435;BME280;21556;55.782;37.528;2023-03-03T04:42:42;98139.59;;;1.87;100.00
35435;BME280;21556;55.782;37.528;2023-03-03T04:45:09;98131.06;;;1.57;100.00
35435;BME280;21556;55.782;37.528;2023-03-03T04:47:41;98129.03;;;1.78;100.00
35435;BME280;21556;55.782;37.528;2023-03-03T04:50:11;98133.72;;;1.60;100.00
35435;BME280;21556;55.782;37.528;2023-03-03T04:52:51;98136.94;;;1.84;100.00
35435;BME280;21556;55.782;37.528;2023-03-03T04:55:17;98138.81;;;1.90;100.00
35435;BME280;21556;55.782;37.528;2023-03-03T04:57:46;98135.19;;;1.83;100.00
35435;BME280;21556;55.782;37.528;2023-03-03T05:00:13;98135.19;;;1.83;100.00
35435;BME280;21556;55.782;37.528;2023-03-03T05:02:39;98134.03;;;1.72;100.00
35435;BME280;21556;55.782;37.528;2023-03-03T05:05:06;98134.53;;;1.59;100.00
35435;BME280;21556;55.782;37.528;2023-03-03T05:07:34;98147.94;;;1.77;100.00
35435;BME280;21556;55.782;37.528;2023-03-03T05:10:01;98137.38;;;1.68;100.00
35435;BME280;21556;55.782;37.528;2023-03-03T05:12:27;98132.31;;;1.73;100.00
35435;BME280;21556;55.782;37.528;2023-03-03T05:14:54;98133.47;;;1.84;100.00
35435;BME280;21556;55.782;37.528;2023-03-03T05:17:22;98137.63;;;1.77;100.00
35435;BME280;21556;55.782;37.528;2023-03-03T05:19:48;98146.91;;;1.71;100.00
35435;BME280;21556;55.782;37.528;2023-03-03T05:22:15;98145.53;;;1.50;100.00
35435;BME280;21556;55.782;37.528;2023-03-03T05:24:43;98141.72;;;1.69;100.00
35435;BME280;21556;55.782;37.528;2023-03-03T05:27:13;98153.19;;;1.79;100.00
35435;BME280;21556;55.782;37.528;2023-03-03T05:29:39;98149.59;;;1.74;100.00
35435;BME280;21556;55.782;37.528;2023-03-03T05:32:06;98147.44;;;1.57;100.00
35435;BME280;21556;55.782;37.528;2023-03-03T05:34:32;98160.41;;;1.27;100.00
35435;BME280;21556;55.782;37.528;2023-03-03T05:36:57;98144.66;;;1.50;100.00
35435;BME280;21556;55.782;37.528;2023-03-03T05:39:26;98145.34;;;1.76;100.00
35435;BME280;21556;55.782;37.528;2023-03-03T05:41:52;98146.25;;;1.78;100.00
35435;BME280;21556;55.782;37.528;2023-03-03T05:44:18;98147.09;;;1.77;100.00
35435;BME280;21556;55.782;37.528;2023-03-03T05:46:44;98141.50;;;1.60;100.00
35435;BME280;21556;55.782;37.528;2023-03-03T05:49:09;98149.94;;;1.87;100.00
35435;BME280;21556;55.782;37.528;2023-03-03T05:51:35;98141.91;;;1.77;100.00
35435;BME280;21556;55.782;37.528;2023-03-03T05:54:01;98142.94;;;1.82;100.00
35435;BME280;21556;55.782;37.528;2023-03-03T05:56:27;98146.75;;;1.33;100.00
35435;BME280;21556;55.782;37.528;2023-03-03T05:58:53;98143.63;;;1.44;100.00
35435;BME280;21556;55.782;37.528;2023-03-03T06:01:19;98144.00;;;1.58;100.00
35435;BME280;21556;55.782;37.528;2023-03-03T06:03:45;98152.44;;;1.51;100.00
35435;BME280;21556;55.782;37.528;2023-03-03T06:06:12;98156.59;;;1.78;100.00
35435;BME280;21556;55.782;37.528;2023-03-03T06:08:38;98148.38;;;1.29;100.00
35435;BME280;21556;55.782;37.528;2023-03-03T06:11:04;98153.97;;;1.76;100.00
35435;BME280;21556;55.782;37.528;2023-03-03T06:13:30;98148.59;;;1.68;100.00
35435;BME280;21556;55.782;37.528;2023-03-03T06:15:56;98151.09;;;1.65;100.00
35435;BME280;21556;55.782;37.528;2023-03-03T06:18:22;98153.56;;;1.61;100.00
35435;BME280;21556;55.782;37.528;2023-03-03T06:20:52;98147.28;;;1.84;100.00
35435;BME280;21556;55.782;37.528;2023-03-03T06:23:18;98151.59;;;1.84;100.00
35435;BME280;21556;55.782;37.528;2023-03-03T06:25:44;98146.97;;;2.05;100.00
35435;BME280;21556;55.782;37.528;2023-03-03T06:28:09;98144.03;;;1.91;100.00
35435;BME280;21556;55.782;37.528;2023-03-03T06:30:35;98147.25;;;2.16;100.00
35435;BME280;21556;55.782;37.528;2023-03-03T06:33:01;98143.09;;;2.23;100.00
35435;BME280;21556;55.782;37.528;2023-03-03T06:35:27;98145.66;;;1.88;100.00
35435;BME280;21556;55.782;37.528;2023-03-03T06:37:53;98142.50;;;2.00;100.00
35435;BME280;21556;55.782;37.528;2023-03-03T06:40:19;98152.38;;;1.81;100.00
35435;BME280;21556;55.782;37.528;2023-03-03T06:46:03;98158.66;;;1.91;100.00
35435;BME280;21556;55.782;37.528;2023-03-03T06:48:32;98157.97;;;1.97;100.00
35435;BME280;21556;55.782;37.528;2023-03-03T06:50:59;98154.66;;;1.71;100.00
35435;BME280;21556;55.782;37.528;2023-03-03T06:53:26;98158.72;;;1.92;100.00
35435;BME280;21556;55.782;37.528;2023-03-03T06:55:54;98149.56;;;2.05;100.00
35435;BME280;21556;55.782;37.528;2023-03-03T06:58:21;98150.00;;;2.24;100.00
35435;BME280;21556;55.782;37.528;2023-03-03T07:00:59;98152.25;;;2.10;100.00
35435;BME280;21556;55.782;37.528;2023-03-03T07:03:29;98154.03;;;2.12;100.00
35435;BME280;21556;55.782;37.528;2023-03-03T07:05:57;98157.09;;;2.31;100.00
35435;BME280;21556;55.782;37.528;2023-03-03T07:08:24;98163.63;;;2.16;100.00
35435;BME280;21556;55.782;37.528;2023-03-03T07:10:51;98158.72;;;2.27;100.00
35435;BME280;21556;55.782;37.528;2023-03-03T07:13:25;98156.53;;;2.08;100.00
35435;BME280;21556;55.782;37.528;2023-03-03T07:15:54;98164.69;;;1.58;100.00
35435;BME280;21556;55.782;37.528;2023-03-03T07:18:39;98162.78;;;1.83;100.00
35435;BME280;21556;55.782;37.528;2023-03-03T07:21:17;98162.97;;;1.90;100.00
35435;BME280;21556;55.782;37.528;2023-03-03T07:23:49;98164.91;;;1.99;100.00
35435;BME280;21556;55.782;37.528;2023-03-03T07:28:58;98156.53;;;2.08;100.00
35435;BME280;21556;55.782;37.528;2023-03-03T07:31:39;98170.69;;;1.89;100.00
35435;BME280;21556;55.782;37.528;2023-03-03T07:37:03;98170.03;;;1.96;100.00
35435;BME280;21556;55.782;37.528;2023-03-03T07:39:36;98164.19;;;2.05;100.00
35435;BME280;21556;55.782;37.528;2023-03-03T07:42:20;98169.78;;;1.55;100.00
35435;BME280;21556;55.782;37.528;2023-03-03T07:44:55;98172.63;;;1.64;100.00
35435;BME280;21556;55.782;37.528;2023-03-03T07:49:51;98170.41;;;2.11;100.00
35435;BME280;21556;55.782;37.528;2023-03-03T07:52:38;98178.16;;;1.47;100.00
35435;BME280;21556;55.782;37.528;2023-03-03T07:55:37;98173.03;;;2.13;100.00
35435;BME280;21556;55.782;37.528;2023-03-03T08:03:40;98156.81;;;2.20;100.00
35435;BME280;21556;55.782;37.528;2023-03-03T08:14:36;98179.06;;;2.13;100.00
35435;BME280;21556;55.782;37.528;2023-03-03T08:17:19;98162.25;;;2.29;100.00
35435;BME280;21556;55.782;37.528;2023-03-03T08:19:46;98170.81;;;2.63;100.00
35435;BME280;21556;55.782;37.528;2023-03-03T08:22:16;98171.47;;;2.54;100.00
35435;BME280;21556;55.782;37.528;2023-03-03T08:24:42;98172.22;;;2.50;100.00
35435;BME280;21556;55.782;37.528;2023-03-03T08:27:08;98163.19;;;2.69;100.00
35435;BME280;21556;55.782;37.528;2023-03-03T08:29:34;98175.94;;;2.25;100.00
35435;BME280;21556;55.782;37.528;2023-03-03T08:32:00;98176.25;;;2.39;100.00
35435;BME280;21556;55.782;37.528;2023-03-03T08:34:26;98181.31;;;2.69;100.00
35435;BME280;21556;55.782;37.528;2023-03-03T08:36:51;98180.81;;;2.48;100.00
35435;BME280;21556;55.782;37.528;2023-03-03T08:39:17;98177.63;;;2.59;100.00
35435;BME280;21556;55.782;37.528;2023-03-03T08:41:43;98176.22;;;2.74;100.00
35435;BME280;21556;55.782;37.528;2023-03-03T08:44:10;98176.59;;;2.53;100.00
35435;BME280;21556;55.782;37.528;2023-03-03T08:46:36;98183.84;;;2.68;100.00
35435;BME280;21556;55.782;37.528;2023-03-03T08:49:02;98182.47;;;2.11;100.00
35435;BME280;21556;55.782;37.528;2023-03-03T08:51:28;98184.59;;;2.27;100.00
35435;BME280;21556;55.782;37.528;2023-03-03T08:53:54;98192.78;;;2.44;100.00
35435;BME280;21556;55.782;37.528;2023-03-03T08:56:20;98190.06;;;2.74;100.00
35435;BME280;21556;55.782;37.528;2023-03-03T08:58:46;98187.78;;;2.88;100.00
35435;BME280;21556;55.782;37.528;2023-03-03T09:01:14;98189.91;;;2.68;100.00
35435;BME280;21556;55.782;37.528;2023-03-03T09:03:42;98193.16;;;2.97;100.00
35435;BME280;21556;55.782;37.528;2023-03-03T09:06:08;98196.28;;;2.82;100.00
35435;BME280;21556;55.782;37.528;2023-03-03T09:08:34;98189.50;;;2.87;100.00
35435;BME280;21556;55.782;37.528;2023-03-03T09:11:00;98190.94;;;2.75;100.00
35435;BME280;21556;55.782;37.528;2023-03-03T09:13:29;98179.84;;;2.44;100.00
35435;BME280;21556;55.782;37.528;2023-03-03T09:15:57;98192.44;;;3.03;100.00
35435;BME280;21556;55.782;37.528;2023-03-03T09:18:37;98185.22;;;3.30;100.00
35435;BME280;21556;55.782;37.528;2023-03-03T09:21:28;98186.13;;;3.31;100.00
35435;BME280;21556;55.782;37.528;2023-03-03T09:23:58;98181.75;;;3.28;100.00
35435;BME280;21556;55.782;37.528;2023-03-03T09:31:48;98201.94;;;3.04;100.00
35435;BME280;21556;55.782;37.528;2023-03-03T09:34:26;98195.41;;;3.20;100.00
35435;BME280;21556;55.782;37.528;2023-03-03T09:36:55;98191.56;;;3.02;100.00
35435;BME280;21556;55.782;37.528;2023-03-03T09:39:26;98194.94;;;2.98;100.00
35435;BME280;21556;55.782;37.528;2023-03-03T09:42:08;98194.00;;;2.96;100.00
35435;BME280;21556;55.782;37.528;2023-03-03T09:52:36;98190.84;;;2.72;100.00
35435;BME280;21556;55.782;37.528;2023-03-03T10:00:19;98186.88;;;2.86;100.00
35435;BME280;21556;55.782;37.528;2023-03-03T10:03:01;98188.38;;;2.76;100.00
35435;BME280;21556;55.782;37.528;2023-03-03T10:06:02;98187.22;;;2.65;100.00
35435;BME280;21556;55.782;37.528;2023-03-03T10:08:48;98188.81;;;2.24;100.00
35435;BME280;21556;55.782;37.528;2023-03-03T10:11:17;98190.22;;;2.44;100.00
35435;BME280;21556;55.782;37.528;2023-03-03T10:21:39;98194.22;;;2.68;100.00
35435;BME280;21556;55.782;37.528;2023-03-03T10:24:30;98186.63;;;3.13;100.00
35435;BME280;21556;55.782;37.528;2023-03-03T10:27:40;98182.06;;;3.44;100.00
35435;BME280;21556;55.782;37.528;2023-03-03T10:35:44;98182.59;;;3.27;100.00
35435;BME280;21556;55.782;37.528;2023-03-03T10:43:55;98172.47;;;3.38;100.00
35435;BME280;21556;55.782;37.528;2023-03-03T10:49:37;98177.50;;;3.74;100.00
35435;BME280;21556;55.782;37.528;2023-03-03T10:57:42;98178.28;;;2.87;100.00
35435;BME280;21556;55.782;37.528;2023-03-03T11:00:30;98182.69;;;2.93;100.00
35435;BME280;21556;55.782;37.528;2023-03-03T11:05:44;98191.28;;;3.29;100.00
35435;BME280;21556;55.782;37.528;2023-03-03T11:08:43;98183.78;;;3.87;100.00
35435;BME280;21556;55.782;37.528;2023-03-03T11:13:55;98187.84;;;3.73;100.00
35435;BME280;21556;55.782;37.528;2023-03-03T11:22:33;98189.03;;;3.46;100.00
35435;BME280;21556;55.782;37.528;2023-03-03T11:25:07;98185.06;;;3.21;100.00
35435;BME280;21556;55.782;37.528;2023-03-03T11:33:17;98196.38;;;3.26;100.00
35435;BME280;21556;55.782;37.528;2023-03-03T11:36:20;98196.22;;;3.19;100.00
35435;BME280;21556;55.782;37.528;2023-03-03T11:39:04;98195.88;;;3.43;100.00
35435;BME280;21556;55.782;37.528;2023-03-03T11:44:04;98190.06;;;3.54;100.00
35435;BME280;21556;55.782;37.528;2023-03-03T11:46:43;98183.09;;;3.52;100.00
35435;BME280;21556;55.782;37.528;2023-03-03T11:49:27;98183.88;;;3.48;100.00
35435;BME280;21556;55.782;37.528;2023-03-03T11:54:59;98197.13;;;3.61;100.00
35435;BME280;21556;55.782;37.528;2023-03-03T12:00:31;98201.56;;;3.25;100.00
35435;BME280;21556;55.782;37.528;2023-03-03T12:05:57;98195.09;;;3.47;100.00
35435;BME280;21556;55.782;37.528;2023-03-03T12:11:00;98199.34;;;3.85;100.00
35435;BME280;21556;55.782;37.528;2023-03-03T12:13:50;98182.13;;;3.91;100.00
35435;BME280;21556;55.782;37.528;2023-03-03T12:16:36;98182.19;;;3.94;100.00
35435;BME280;21556;55.782;37.528;2023-03-03T12:24:32;98184.69;;;3.89;100.00
35435;BME280;21556;55.782;37.528;2023-03-03T12:29:50;98183.44;;;4.16;100.00
35435;BME280;21556;55.782;37.528;2023-03-03T12:34:54;98185.16;;;4.15;100.00
35435;BME280;21556;55.782;37.528;2023-03-03T12:37:46;98203.59;;;3.40;100.00
35435;BME280;21556;55.782;37.528;2023-03-03T12:40:19;98205.22;;;3.34;100.00
35435;BME280;21556;55.782;37.528;2023-03-03T12:43:21;98209.31;;;3.66;100.00
35435;BME280;21556;55.782;37.528;2023-03-03T12:46:03;98208.38;;;3.20;100.00
35435;BME280;21556;55.782;37.528;2023-03-03T12:56:52;98211.00;;;3.64;100.00
35435;BME280;21556;55.782;37.528;2023-03-03T12:59:20;98199.69;;;3.60;100.00
35435;BME280;21556;55.782;37.528;2023-03-03T13:02:14;98206.94;;;3.76;100.00
35435;BME280;21556;55.782;37.528;2023-03-03T13:07:46;98213.25;;;3.47;100.00
35435;BME280;21556;55.782;37.528;2023-03-03T13:10:26;98209.72;;;3.45;100.00
35435;BME280;21556;55.782;37.528;2023-03-03T13:13:07;98214.06;;;3.44;100.00
35435;BME280;21556;55.782;37.528;2023-03-03T13:15:42;98209.88;;;3.51;100.00
35435;BME280;21556;55.782;37.528;2023-03-03T13:21:20;98210.22;;;2.87;100.00
35435;BME280;21556;55.782;37.528;2023-03-03T13:31:47;98194.94;;;3.81;100.00
35435;BME280;21556;55.782;37.528;2023-03-03T13:37:00;98193.56;;;4.00;100.00
35435;BME280;21556;55.782;37.528;2023-03-03T13:39:56;98198.22;;;3.73;100.00
35435;BME280;21556;55.782;37.528;2023-03-03T13:42:46;98194.72;;;3.71;100.00
35435;BME280;21556;55.782;37.528;2023-03-03T13:47:42;98192.44;;;3.88;100.00
35435;BME280;21556;55.782;37.528;2023-03-03T13:52:51;98192.28;;;3.80;100.00
35435;BME280;21556;55.782;37.528;2023-03-03T13:55:41;98187.63;;;3.62;100.00
35435;BME280;21556;55.782;37.528;2023-03-03T13:58:24;98184.28;;;3.68;100.00
35435;BME280;21556;55.782;37.528;2023-03-03T14:01:05;98187.38;;;3.94;100.00
35435;BME280;21556;55.782;37.528;2023-03-03T14:03:49;98194.03;;;3.81;100.00
35435;BME280;21556;55.782;37.528;2023-03-03T14:06:23;98186.44;;;3.89;100.00
35435;BME280;21556;55.782;37.528;2023-03-03T14:12:03;98189.88;;;3.89;100.00
35435;BME280;21556;55.782;37.528;2023-03-03T14:14:44;98197.63;;;3.88;100.00
35435;BME280;21556;55.782;37.528;2023-03-03T14:20:19;98198.63;;;3.94;100.00
35435;BME280;21556;55.782;37.528;2023-03-03T14:23:00;98185.84;;;4.05;100.00
35435;BME280;21556;55.782;37.528;2023-03-03T14:25:26;98194.56;;;4.08;100.00
35435;BME280;21556;55.782;37.528;2023-03-03T14:28:14;98197.81;;;3.98;100.00
35435;BME280;21556;55.782;37.528;2023-03-03T14:30:42;98193.44;;;3.96;100.00
35435;BME280;21556;55.782;37.528;2023-03-03T14:35:42;98201.00;;;3.83;100.00
35435;BME280;21556;55.782;37.528;2023-03-03T14:38:14;98192.72;;;3.57;100.00
35435;BME280;21556;55.782;37.528;2023-03-03T14:40:42;98197.06;;;3.58;100.00
35435;BME280;21556;55.782;37.528;2023-03-03T14:43:25;98195.09;;;3.47;100.00
35435;BME280;21556;55.782;37.528;2023-03-03T14:45:52;98197.84;;;3.54;100.00
35435;BME280;21556;55.782;37.528;2023-03-03T14:48:24;98198.91;;;3.64;100.00
35435;BME280;21556;55.782;37.528;2023-03-03T14:53:37;98202.47;;;3.69;100.00
35435;BME280;21556;55.782;37.528;2023-03-03T14:56:34;98203.53;;;3.79;100.00
35435;BME280;21556;55.782;37.528;2023-03-03T14:59:22;98201.88;;;3.84;100.00
35435;BME280;21556;55.782;37.528;2023-03-03T15:04:43;98207.69;;;3.71;100.00
35435;BME280;21556;55.782;37.528;2023-03-03T15:09:50;98207.69;;;3.71;100.00
35435;BME280;21556;55.782;37.528;2023-03-03T15:12:37;98207.66;;;3.69;100.00
35435;BME280;21556;55.782;37.528;2023-03-03T15:17:43;98214.84;;;3.40;100.00
35435;BME280;21556;55.782;37.528;2023-03-03T15:20:49;98207.50;;;3.61;100.00
35435;BME280;21556;55.782;37.528;2023-03-03T15:26:13;98226.50;;;3.20;100.00
35435;BME280;21556;55.782;37.528;2023-03-03T15:29:03;98217.19;;;3.29;100.00
35435;BME280;21556;55.782;37.528;2023-03-03T15:31:51;98216.34;;;3.71;100.00
35435;BME280;21556;55.782;37.528;2023-03-03T15:50:50;98223.88;;;3.59;100.00
35435;BME280;21556;55.782;37.528;2023-03-03T15:53:28;98226.00;;;3.78;100.00
35435;BME280;21556;55.782;37.528;2023-03-03T15:58:39;98218.03;;;3.28;100.00
35435;BME280;21556;55.782;37.528;2023-03-03T16:03:58;98216.44;;;3.76;100.00
35435;BME280;21556;55.782;37.528;2023-03-03T16:17:38;98226.38;;;3.54;100.00
35435;BME280;21556;55.782;37.528;2023-03-03T16:20:21;98224.66;;;3.55;100.00
35435;BME280;21556;55.782;37.528;2023-03-03T16:25:59;98220.44;;;3.60;100.00
35435;BME280;21556;55.782;37.528;2023-03-03T16:31:28;98226.22;;;3.47;100.00
35435;BME280;21556;55.782;37.528;2023-03-03T16:34:00;98214.28;;;3.14;100.00
35435;BME280;21556;55.782;37.528;2023-03-03T16:36:57;98223.25;;;3.30;100.00
35435;BME280;21556;55.782;37.528;2023-03-03T16:39:55;98217.56;;;3.46;100.00
35435;BME280;21556;55.782;37.528;2023-03-03T16:42:30;98220.16;;;3.07;100.00
35435;BME280;21556;55.782;37.528;2023-03-03T16:45:00;98222.47;;;3.34;100.00
35435;BME280;21556;55.782;37.528;2023-03-03T17:03:53;98224.13;;;2.91;100.00
35435;BME280;21556;55.782;37.528;2023-03-03T17:12:13;98223.94;;;2.83;100.00
35435;BME280;21556;55.782;37.528;2023-03-03T17:18:19;98223.63;;;3.47;100.00